Time;durP1;ratioP1;P1;durP2;ratioP2;P2;SDS_P1;SDS_P2;PMS_P1;PMS_P2;Temp;Humidity;BMP_temperature;BMP_pressure;BME280_temperature;BME280_humidity;BME280_pressure;Samples;Min_cycle;Max_cycle;Signal;HPM_P1;HPM_P2
2023/04/12 00:00:51;;;;;;;8.70;2.60;;;;;;;10.83;80.86;98274.88;67990;1275;1016057;-72
2023/04/12 00:03:53;;;;;;;10.10;2.70;;;;;;;10.92;80.75;98275.09;67968;1275;1016489;-72
2023/04/12 00:06:54;;;;;;;6.10;2.40;;;;;;;10.90;80.96;98277.36;68058;1275;1016553;-73
2023/04/12 00:09:55;;;;;;;8.80;2.60;;;;;;;10.98;80.79;98276.81;68033;1275;1016489;-72
2023/04/12 00:12:56;;;;;;;9.00;2.70;;;;;;;11.00;81.31;98269.13;67980;1275;1015774;-72
2023/04/12 00:15:57;;;;;;;9.60;2.60;;;;;;;11.07;80.23;98265.83;67939;1275;1016667;-72
2023/04/12 00:18:58;;;;;;;10.10;2.70;;;;;;;11.01;80.26;98266.95;67955;1275;1016364;-72
2023/04/12 00:21:59;;;;;;;10.60;2.70;;;;;;;11.11;80.24;98264.16;68023;1275;1016465;-71
2023/04/12 00:25:00;;;;;;;9.60;2.70;;;;;;;11.17;81.02;98265.07;68020;1275;1016334;-73
2023/04/12 00:28:01;;;;;;;15.00;3.10;;;;;;;11.41;79.92;98268.64;68028;1275;1016415;-72
2023/04/12 00:31:02;;;;;;;12.80;3.30;;;;;;;11.47;78.69;98259.79;68035;1275;1016492;-73
2023/04/12 00:34:03;;;;;;;9.50;2.40;;;;;;;11.50;78.08;98259.06;67965;1275;1016573;-72
2023/04/12 00:37:04;;;;;;;9.20;3.00;;;;;;;11.41;78.28;98254.48;68031;1260;1015945;-72
2023/04/12 00:40:07;;;;;;;11.20;3.20;;;;;;;11.32;77.67;98251.27;67977;1275;1016421;-73
2023/04/12 00:43:09;;;;;;;10.30;2.90;;;;;;;11.21;78.00;98249.95;68030;1275;1016477;-73
2023/04/12 00:46:11;;;;;;;10.10;3.10;;;;;;;11.13;78.23;98248.46;68037;1275;1016334;-72
2023/04/12 00:49:12;;;;;;;11.50;3.10;;;;;;;11.08;78.83;98247.89;68041;1275;1016497;-72
2023/04/12 00:52:14;;;;;;;12.80;3.60;;;;;;;10.98;79.49;98245.50;67981;1275;1016501;-72
2023/04/12 00:55:15;;;;;;;14.70;3.60;;;;;;;10.73;81.51;98244.27;67991;1275;1016321;-68
2023/04/12 00:58:16;;;;;;;13.20;3.60;;;;;;;10.62;81.96;98238.55;67954;1275;1016373;-69
2023/04/12 01:01:18;;;;;;;13.20;3.60;;;;;;;10.57;82.81;98239.11;68053;1275;1016547;-69
2023/04/12 01:04:21;;;;;;;10.40;3.30;;;;;;;10.63;82.45;98241.11;68006;1275;1016523;-69
2023/04/12 01:07:22;;;;;;;13.30;4.00;;;;;;;10.60;82.54;98233.65;67981;1275;1016497;-70
2023/04/12 01:10:23;;;;;;;15.10;4.00;;;;;;;10.50;83.44;98230.66;68039;1275;1016925;-71
2023/04/12 01:13:24;;;;;;;14.10;4.40;;;;;;;10.46;83.87;98230.08;67977;1275;1016038;-69
2023/04/12 01:16:25;;;;;;;15.50;4.50;;;;;;;10.38;84.60;98230.25;67984;1275;1016466;-71
2023/04/12 01:19:27;;;;;;;13.50;4.20;;;;;;;10.44;85.04;98227.28;67990;1275;1018274;-72
2023/04/12 01:22:28;;;;;;;17.00;5.00;;;;;;;10.41;86.91;98226.58;67988;1275;1016890;-58
2023/04/12 01:25:31;;;;;;;19.40;5.50;;;;;;;10.45;86.53;98226.65;68003;1275;1016416;-58
2023/04/12 01:28:32;;;;;;;19.30;6.10;;;;;;;10.27;88.93;98224.20;68016;1276;1016135;-71
2023/04/12 01:31:33;;;;;;;16.90;5.80;;;;;;;10.23;89.40;98220.93;67999;1275;1016284;-71
2023/04/12 01:34:34;;;;;;;23.30;8.10;;;;;;;10.31;88.06;98221.66;67997;1275;1016885;-71
2023/04/12 01:37:35;;;;;;;20.10;6.90;;;;;;;10.33;88.35;98221.71;67959;1275;1016045;-71
2023/04/12 01:40:36;;;;;;;21.20;7.10;;;;;;;10.26;89.40;98225.48;68019;1264;1016350;-70
2023/04/12 01:43:37;;;;;;;24.80;8.60;;;;;;;10.26;89.75;98223.03;68033;1275;1016364;-72
2023/04/12 01:46:38;;;;;;;23.60;8.50;;;;;;;10.34;88.56;98220.91;67996;1275;1015956;-71
2023/04/12 01:49:39;;;;;;;25.20;9.00;;;;;;;10.26;89.56;98219.86;68007;1275;1016479;-71
2023/04/12 01:52:40;;;;;;;23.70;9.20;;;;;;;10.21;90.14;98221.94;67981;1275;1016446;-59
2023/04/12 01:55:41;;;;;;;24.00;9.10;;;;;;;10.29;89.40;98225.11;68023;1275;1016148;-59
2023/04/12 01:58:42;;;;;;;25.20;8.80;;;;;;;10.30;88.90;98223.98;67947;1275;1016301;-71
2023/04/12 02:01:43;;;;;;;25.60;9.10;;;;;;;10.22;89.68;98226.65;68046;1275;1016238;-71
2023/04/12 02:04:44;;;;;;;25.30;9.60;;;;;;;10.22;89.21;98227.98;68011;1276;1016431;-71
2023/04/12 02:07:45;;;;;;;25.70;10.20;;;;;;;10.24;88.95;98224.05;67914;1276;1160230;-71
2023/04/12 02:10:46;;;;;;;24.20;9.30;;;;;;;10.13;89.64;98225.19;68002;1275;1016432;-71
2023/04/12 02:13:47;;;;;;;25.50;9.50;;;;;;;10.04;90.46;98225.09;68040;1275;1017877;-71
2023/04/12 02:16:49;;;;;;;25.80;9.60;;;;;;;9.95;91.60;98231.27;68009;1275;1016989;-72
2023/04/12 02:19:50;;;;;;;25.10;10.60;;;;;;;9.98;91.17;98233.34;67938;1275;1019290;-72
2023/04/12 02:22:51;;;;;;;23.70;10.00;;;;;;;9.96;91.26;98235.37;68039;1275;1018200;-70
2023/04/12 02:25:52;;;;;;;24.70;9.70;;;;;;;10.02;90.28;98235.13;68025;1275;1016164;-71
2023/04/12 02:28:53;;;;;;;26.90;10.60;;;;;;;9.98;91.10;98239.64;68023;1275;1016468;-67
2023/04/12 02:31:54;;;;;;;25.80;10.20;;;;;;;10.00;91.00;98238.59;67991;1276;1016509;-70
2023/04/12 02:34:57;;;;;;;24.40;10.60;;;;;;;10.00;90.77;98237.20;68045;1275;1018258;-72
2023/04/12 02:37:58;;;;;;;25.80;10.50;;;;;;;9.99;91.45;98239.73;67983;1275;1016229;-71
2023/04/12 02:40:59;;;;;;;24.20;10.10;;;;;;;10.07;90.09;98239.73;67988;1275;1016360;-71
2023/04/12 02:44:00;;;;;;;26.50;10.70;;;;;;;10.12;89.86;98243.70;68013;1275;1016010;-67
2023/04/12 02:47:02;;;;;;;25.30;10.60;;;;;;;9.98;91.32;98246.04;68018;1275;1016371;-67
2023/04/12 02:50:03;;;;;;;28.30;11.60;;;;;;;10.08;90.21;98247.31;68046;1276;1016316;-69
2023/04/12 02:53:04;;;;;;;26.50;11.40;;;;;;;10.11;89.77;98242.44;67976;1275;1016102;-71
2023/04/12 02:56:05;;;;;;;26.10;11.00;;;;;;;10.05;90.22;98242.81;68003;1275;1016410;-71
2023/04/12 02:59:06;;;;;;;30.80;11.20;;;;;;;9.97;90.91;98239.14;67972;1275;1016406;-71
2023/04/12 03:02:07;;;;;;;27.40;11.90;;;;;;;9.93;91.47;98238.90;68003;1275;1016015;-69
2023/04/12 03:05:08;;;;;;;26.90;11.90;;;;;;;9.96;90.97;98236.45;67962;1275;1016236;-71
2023/04/12 03:08:09;;;;;;;25.70;12.10;;;;;;;9.95;90.89;98243.48;68031;1275;1017097;-71
2023/04/12 03:11:10;;;;;;;25.70;11.70;;;;;;;10.04;90.13;98246.34;67999;1275;1016321;-70
2023/04/12 03:14:11;;;;;;;28.30;12.70;;;;;;;9.97;90.65;98246.13;68045;1275;1016415;-69
2023/04/12 03:17:12;;;;;;;29.80;13.00;;;;;;;9.98;90.84;98245.39;68005;1276;1016426;-71
2023/04/12 03:20:13;;;;;;;28.30;12.20;;;;;;;9.93;91.39;98243.27;67995;1276;1016307;-68
2023/04/12 03:23:14;;;;;;;29.60;13.10;;;;;;;9.91;91.70;98243.95;68015;1276;1016272;-68
2023/04/12 03:26:19;;;;;;;27.80;13.50;;;;;;;10.00;90.71;98242.09;68047;1276;1016267;-71
2023/04/12 03:29:20;;;;;;;28.80;14.10;;;;;;;10.03;90.46;98243.11;68005;1276;1016276;-71
2023/04/12 03:32:21;;;;;;;30.70;14.40;;;;;;;9.99;91.08;98236.92;68008;1275;1016458;-70
2023/04/12 03:35:22;;;;;;;32.40;14.50;;;;;;;9.94;91.11;98236.22;67964;1276;1016353;-71
2023/04/12 03:38:23;;;;;;;33.00;15.70;;;;;;;10.01;90.09;98228.39;68059;1275;1016150;-71
2023/04/12 03:41:24;;;;;;;32.80;15.40;;;;;;;10.01;90.21;98225.77;67977;1275;1016486;-71
2023/04/12 03:44:25;;;;;;;32.70;16.10;;;;;;;10.02;90.41;98223.46;68018;1275;1017169;-71
2023/04/12 03:47:26;;;;;;;33.60;16.30;;;;;;;10.06;90.45;98229.44;67970;1275;1015706;-71
2023/04/12 03:50:28;;;;;;;31.80;15.50;;;;;;;10.08;90.38;98220.74;68028;1275;1016396;-71
2023/04/12 03:53:30;;;;;;;33.40;15.40;;;;;;;10.06;90.13;98221.78;67965;1275;1016397;-70
2023/04/12 03:56:31;;;;;;;29.70;14.70;;;;;;;10.04;90.93;98217.39;68002;1275;1016531;-71
2023/04/12 03:59:32;;;;;;;30.60;14.50;;;;;;;10.05;90.72;98217.14;68011;1275;1016366;-71
2023/04/12 04:02:33;;;;;;;32.80;15.50;;;;;;;10.13;90.37;98220.27;67943;1275;1016290;-71
2023/04/12 04:05:34;;;;;;;30.80;14.10;;;;;;;10.06;90.84;98218.31;67994;1275;1018474;-71
2023/04/12 04:08:35;;;;;;;31.40;14.50;;;;;;;10.05;90.68;98217.67;68024;1275;1016692;-70
2023/04/12 04:11:36;;;;;;;31.20;15.20;;;;;;;9.85;92.97;98227.06;68018;1275;1016273;-71
2023/04/12 04:14:37;;;;;;;31.90;14.40;;;;;;;9.83;93.11;98228.91;68036;1275;1016067;-71
2023/04/12 04:17:38;;;;;;;32.80;16.20;;;;;;;9.82;93.11;98233.16;67985;1275;1016378;-71
2023/04/12 04:20:39;;;;;;;31.70;15.10;;;;;;;9.82;93.63;98236.66;68015;1275;1016220;-68
2023/04/12 04:23:43;;;;;;;34.80;16.30;;;;;;;9.81;93.62;98234.50;67994;1275;1016394;-71
2023/04/12 04:26:44;;;;;;;36.70;16.90;;;;;;;9.88;93.26;98241.00;67960;1275;1016411;-71
2023/04/12 04:29:45;;;;;;;36.10;16.00;;;;;;;9.87;93.00;98242.97;68008;1275;1019299;-71
2023/04/12 04:32:47;;;;;;;33.00;15.90;;;;;;;9.94;92.55;98243.05;67960;1275;1016047;-65
2023/04/12 04:35:48;;;;;;;37.50;16.60;;;;;;;9.98;91.99;98242.05;68075;1275;1016384;-68
2023/04/12 04:38:49;;;;;;;34.80;16.50;;;;;;;9.98;91.56;98244.48;67955;1275;1016461;-71
2023/04/12 04:41:53;;;;;;;33.20;16.20;;;;;;;10.02;90.85;98248.40;67939;1275;1015834;-70
2023/04/12 04:45:01;;;;;;;37.00;16.80;;;;;;;10.03;90.12;98249.57;68014;1275;1016376;-65
2023/04/12 04:48:02;;;;;;;34.30;16.20;;;;;;;10.03;90.48;98249.08;67977;1275;1016255;-70
2023/04/12 04:51:03;;;;;;;34.20;16.50;;;;;;;10.02;90.27;98247.73;68008;1275;1016300;-71
2023/04/12 04:54:04;;;;;;;34.60;16.30;;;;;;;10.17;89.38;98250.38;67996;1275;1016512;-71
2023/04/12 04:57:06;;;;;;;33.80;16.00;;;;;;;10.31;88.19;98255.73;67965;1275;1016074;-71
2023/04/12 05:00:09;;;;;;;36.20;17.20;;;;;;;10.19;88.80;98260.20;67992;1275;1016423;-70
2023/04/12 05:03:11;;;;;;;35.90;16.60;;;;;;;10.08;90.01;98265.86;67955;1275;1016450;-60
2023/04/12 05:06:12;;;;;;;39.60;17.80;;;;;;;10.12;89.45;98263.69;68005;1275;1016436;-58
2023/04/12 05:09:12;;;;;;;36.80;17.30;;;;;;;9.99;90.79;98266.98;67988;1275;1016464;-68
2023/04/12 05:12:13;;;;;;;37.30;17.60;;;;;;;9.95;90.83;98264.80;68015;1275;1016509;-71
2023/04/12 05:15:14;;;;;;;38.20;17.30;;;;;;;9.99;90.55;98265.21;67960;1275;1018801;-71
2023/04/12 05:18:18;;;;;;;37.40;17.20;;;;;;;10.05;89.77;98266.04;67966;1275;1019020;-70
2023/04/12 05:21:19;;;;;;;38.90;16.40;;;;;;;10.02;90.08;98264.87;68001;1275;1016434;-71
2023/04/12 05:24:20;;;;;;;37.60;17.30;;;;;;;10.03;89.94;98265.44;67934;1275;1016468;-68
2023/04/12 05:27:21;;;;;;;40.40;19.30;;;;;;;10.06;89.90;98269.29;68020;1275;1016257;-70
2023/04/12 05:30:22;;;;;;;40.90;17.50;;;;;;;10.09;89.55;98272.56;67963;1275;1016419;-71
2023/04/12 05:33:23;;;;;;;54.30;23.60;;;;;;;10.12;89.40;98273.05;67998;1275;1016435;-59
2023/04/12 05:36:24;;;;;;;42.60;17.90;;;;;;;10.14;89.29;98269.98;68001;1275;1016230;-60
2023/04/12 05:39:26;;;;;;;43.80;18.60;;;;;;;10.07;89.71;98271.30;68037;1276;1016233;-71
2023/04/12 05:42:27;;;;;;;44.50;20.80;;;;;;;10.08;89.10;98272.27;67962;1275;1016242;-68
2023/04/12 05:45:28;;;;;;;48.80;21.10;;;;;;;10.11;88.44;98276.81;67955;1275;1016394;-71
2023/04/12 05:48:29;;;;;;;43.30;19.60;;;;;;;10.09;88.85;98279.57;67994;1275;1016581;-71
2023/04/12 05:51:30;;;;;;;44.70;19.20;;;;;;;10.05;89.42;98278.80;67974;1276;1016132;-71
2023/04/12 05:54:31;;;;;;;39.00;17.50;;;;;;;9.97;90.05;98276.16;68023;1276;1016852;-71
2023/04/12 05:57:32;;;;;;;36.50;16.30;;;;;;;9.96;90.50;98275.35;67957;1276;1016331;-71
2023/04/12 06:00:33;;;;;;;43.40;18.70;;;;;;;10.04;89.96;98272.25;68014;1276;1016014;-71
2023/04/12 06:03:34;;;;;;;34.90;15.80;;;;;;;10.04;90.42;98267.66;67964;1276;1016410;-66
2023/04/12 06:06:35;;;;;;;38.50;15.20;;;;;;;10.12;90.37;98265.58;67976;1276;1016377;-71
2023/04/12 06:09:36;;;;;;;39.30;15.80;;;;;;;10.12;90.05;98264.71;67973;1275;1016370;-70
2023/04/12 06:12:40;;;;;;;37.00;15.10;;;;;;;10.19;90.25;98263.52;67988;1276;1016621;-71
2023/04/12 06:15:41;;;;;;;33.40;15.40;;;;;;;10.29;89.38;98263.73;67962;1276;1016224;-71
2023/04/12 06:18:42;;;;;;;37.10;15.10;;;;;;;10.41;88.65;98263.44;68017;1275;1018132;-70
2023/04/12 06:21:43;;;;;;;32.90;14.80;;;;;;;10.44;88.01;98266.21;68010;1275;1016168;-71
2023/04/12 06:24:44;;;;;;;38.20;16.10;;;;;;;10.54;87.49;98269.35;67957;1276;1016475;-68
2023/04/12 06:27:45;;;;;;;32.50;15.80;;;;;;;10.55;87.10;98268.79;68025;1276;1016457;-66
2023/04/12 06:30:46;;;;;;;38.60;16.80;;;;;;;10.58;87.23;98269.61;67954;1275;1016474;-68
2023/04/12 06:33:49;;;;;;;40.20;17.80;;;;;;;10.56;86.88;98272.70;68036;1275;1016134;-69
2023/04/12 06:36:50;;;;;;;40.50;16.80;;;;;;;10.49;87.30;98267.98;68029;1276;1016423;-70
2023/04/12 06:39:51;;;;;;;34.90;15.80;;;;;;;10.39;87.75;98265.13;67983;1276;1015801;-73
2023/04/12 06:42:52;;;;;;;33.50;14.80;;;;;;;10.53;87.57;98264.52;67952;1275;1017129;-70
2023/04/12 06:45:55;;;;;;;34.90;15.40;;;;;;;10.46;87.14;98261.55;67966;1275;1016497;-73
2023/04/12 06:48:56;;;;;;;37.00;16.30;;;;;;;10.38;87.03;98256.11;67917;1276;1016251;-69
2023/04/12 06:51:57;;;;;;;38.30;15.80;;;;;;;10.50;86.11;98254.05;67980;1276;1016527;-73
2023/04/12 06:54:58;;;;;;;38.30;16.30;;;;;;;10.50;85.34;98253.26;68008;1276;1016847;-72
2023/04/12 06:57:59;;;;;;;31.30;13.60;;;;;;;10.61;85.95;98256.80;68030;1275;1016373;-73
2023/04/12 07:01:00;;;;;;;37.60;16.90;;;;;;;10.67;84.80;98259.55;67942;1276;1016434;-73
2023/04/12 07:04:01;;;;;;;37.30;15.80;;;;;;;10.71;85.55;98258.55;67996;1275;1016357;-73
2023/04/12 07:07:02;;;;;;;33.10;12.90;;;;;;;10.87;84.67;98262.02;67948;1275;1016403;-72
2023/04/12 07:10:03;;;;;;;31.90;13.10;;;;;;;10.90;83.23;98267.94;68026;1276;1016984;-73
2023/04/12 07:13:07;;;;;;;31.90;13.60;;;;;;;11.09;83.45;98267.23;67984;1275;1016179;-72
2023/04/12 07:16:08;;;;;;;35.60;14.90;;;;;;;11.24;81.90;98267.89;67999;1275;1016275;-73
2023/04/12 07:19:08;;;;;;;31.70;13.50;;;;;;;11.36;80.98;98267.02;67948;1275;1016483;-71
2023/04/12 07:22:09;;;;;;;27.20;11.70;;;;;;;11.41;80.76;98274.39;67997;1275;1016449;-74
2023/04/12 07:25:10;;;;;;;27.30;12.20;;;;;;;11.53;80.28;98269.66;67957;1276;1017531;-73
2023/04/12 07:28:11;;;;;;;29.60;13.00;;;;;;;11.47;81.13;98272.02;68004;1275;1016173;-73
2023/04/12 07:31:12;;;;;;;27.90;12.20;;;;;;;11.48;80.75;98268.80;67981;1275;1016426;-72
2023/04/12 07:34:13;;;;;;;26.20;12.10;;;;;;;11.49;80.88;98265.44;68034;1275;1016694;-71
2023/04/12 07:37:16;;;;;;;27.30;11.50;;;;;;;11.45;82.16;98263.77;67986;1275;1016511;-73
2023/04/12 07:40:17;;;;;;;29.90;12.70;;;;;;;11.30;80.33;98261.35;68055;1275;1016426;-73
2023/04/12 07:43:18;;;;;;;29.40;13.20;;;;;;;11.15;82.56;98262.84;67979;1275;1015828;-73
2023/04/12 07:46:19;;;;;;;28.30;12.20;;;;;;;11.21;82.98;98264.27;68011;1275;1016457;-73
2023/04/12 07:49:20;;;;;;;29.80;12.30;;;;;;;11.32;83.74;98260.71;67971;1275;1016303;-73
2023/04/12 07:52:21;;;;;;;27.10;11.50;;;;;;;11.37;81.44;98267.89;67991;1275;1016477;-73
2023/04/12 07:55:22;;;;;;;27.20;11.80;;;;;;;11.37;80.86;98270.15;67964;1276;1016323;-71
2023/04/12 07:58:23;;;;;;;29.00;12.50;;;;;;;11.39;80.72;98273.52;68051;1275;1016412;-69
2023/04/12 08:01:24;;;;;;;27.30;11.90;;;;;;;11.44;80.52;98273.14;68041;1276;1016157;-73
2023/04/12 08:04:27;;;;;;;30.00;13.10;;;;;;;11.46;82.17;98273.49;68004;1276;1016421;-73
2023/04/12 08:07:28;;;;;;;33.80;14.80;;;;;;;11.33;80.96;98278.65;68028;1275;1016300;-72
2023/04/12 08:10:29;;;;;;;34.90;13.00;;;;;;;11.05;82.18;98283.30;67860;1275;1016425;-71
2023/04/12 08:13:30;;;;;;;38.10;15.00;;;;;;;10.88;83.03;98287.30;68006;1275;1016360;-72
2023/04/12 08:16:32;;;;;;;37.90;14.40;;;;;;;10.86;82.93;98286.72;67980;1275;1016448;-73
2023/04/12 08:19:33;;;;;;;36.50;14.80;;;;;;;10.91;83.37;98286.55;67978;1276;1016329;-73
2023/04/12 08:22:35;;;;;;;35.80;15.30;;;;;;;11.12;83.35;98280.89;67942;1275;1016446;-73
2023/04/12 08:25:35;;;;;;;28.40;12.20;;;;;;;11.29;81.86;98279.64;68061;1276;1016664;-72
2023/04/12 08:28:37;;;;;;;29.50;12.90;;;;;;;11.35;80.22;98282.02;67968;1276;1016364;-73
2023/04/12 08:31:38;;;;;;;30.60;13.80;;;;;;;11.26;80.11;98282.69;68000;1275;1016044;-72
2023/04/12 08:34:39;;;;;;;31.30;13.30;;;;;;;11.11;80.87;98278.19;68033;1275;1019750;-70
2023/04/12 08:37:40;;;;;;;48.60;19.70;;;;;;;11.11;82.10;98273.05;67971;1275;1016250;-71
2023/04/12 08:40:41;;;;;;;44.90;17.60;;;;;;;11.08;81.66;98276.08;68037;1275;1016140;-71
2023/04/12 08:43:43;;;;;;;34.10;15.10;;;;;;;11.02;82.32;98279.48;67987;1275;1016259;-72
2023/04/12 08:46:44;;;;;;;29.70;13.70;;;;;;;10.98;82.07;98276.60;68028;1275;1016494;-70
2023/04/12 08:49:45;;;;;;;30.40;14.00;;;;;;;10.91;82.29;98276.91;67954;1275;1016527;-70
2023/04/12 08:52:46;;;;;;;33.00;15.20;;;;;;;10.87;82.91;98275.28;67938;1275;1017740;-69
2023/04/12 08:56:04;;;;;;;37.90;16.70;;;;;;;10.82;83.00;98273.90;67937;1275;1016472;-71
2023/04/12 08:59:06;;;;;;;42.30;17.90;;;;;;;10.76;82.75;98268.04;68017;1275;1017277;-70
2023/04/12 09:02:07;;;;;;;40.90;17.10;;;;;;;10.79;83.44;98266.02;68008;1275;1016363;-72
2023/04/12 09:05:08;;;;;;;34.70;16.50;;;;;;;10.89;83.33;98266.07;67981;1275;1016432;-70
2023/04/12 09:08:10;;;;;;;31.00;15.00;;;;;;;10.92;82.98;98266.86;68001;1275;1016447;-71
2023/04/12 09:11:12;;;;;;;35.30;15.70;;;;;;;11.00;82.60;98260.72;67993;1275;1016551;-69
2023/04/12 09:14:13;;;;;;;32.90;14.60;;;;;;;10.91;82.48;98261.52;67976;1275;1016290;-71
2023/04/12 09:17:14;;;;;;;30.10;14.50;;;;;;;10.96;82.44;98257.89;68006;1275;1016345;-72
2023/04/12 09:20:15;;;;;;;31.40;14.20;;;;;;;11.05;81.48;98257.05;67996;1275;1016525;-71
2023/04/12 09:23:16;;;;;;;30.70;14.30;;;;;;;11.14;81.04;98253.56;67984;1275;1019098;-71
2023/04/12 09:26:17;;;;;;;35.70;16.30;;;;;;;11.37;81.76;98254.59;68069;1275;1016359;-69
2023/04/12 09:29:18;;;;;;;31.30;13.90;;;;;;;11.63;79.58;98252.80;68009;1275;1015699;-71
2023/04/12 09:32:19;;;;;;;34.00;15.20;;;;;;;11.82;79.08;98251.22;67979;1275;1017371;-69
2023/04/12 09:35:20;;;;;;;39.40;18.10;;;;;;;11.83;78.60;98250.48;67994;1275;1016464;-59
2023/04/12 09:38:21;;;;;;;33.80;15.20;;;;;;;12.03;79.03;98252.71;67974;1274;1016126;-59
2023/04/12 09:41:23;;;;;;;29.90;13.30;;;;;;;12.22;78.02;98251.42;67985;1275;1016105;-71
2023/04/12 09:44:24;;;;;;;30.30;13.50;;;;;;;12.34;77.99;98248.52;68031;1275;1016490;-71
2023/04/12 09:47:25;;;;;;;33.30;12.90;;;;;;;12.65;77.21;98245.61;67986;1275;1016078;-70
2023/04/12 09:50:27;;;;;;;28.00;12.90;;;;;;;12.84;74.91;98245.20;68011;1275;1016505;-71
2023/04/12 09:53:28;;;;;;;26.70;12.30;;;;;;;12.77;74.80;98245.19;68009;1275;1016355;-63
2023/04/12 09:56:30;;;;;;;25.70;11.30;;;;;;;12.80;75.09;98245.31;68060;1275;1016413;-64
2023/04/12 09:59:31;;;;;;;27.70;11.80;;;;;;;12.98;74.51;98244.96;67983;1276;1016003;-69
2023/04/12 10:02:32;;;;;;;28.90;12.30;;;;;;;12.86;73.10;98242.57;67983;1275;1016584;-70
2023/04/12 10:05:39;;;;;;;27.30;12.00;;;;;;;12.74;73.07;98243.16;67994;1276;1016197;-62
2023/04/12 10:08:41;;;;;;;27.80;12.80;;;;;;;12.77;73.45;98243.30;68013;1275;1018618;-64
2023/04/12 10:11:42;;;;;;;26.90;12.80;;;;;;;12.73;73.04;98240.41;67953;1275;1016486;-68
2023/04/12 10:14:43;;;;;;;27.50;12.00;;;;;;;12.79;72.31;98239.60;68008;1275;1016447;-64
2023/04/12 10:17:44;;;;;;;26.90;12.00;;;;;;;13.10;73.03;98237.48;67970;1276;1016265;-63
2023/04/12 10:20:46;;;;;;;28.70;12.10;;;;;;;13.30;72.27;98237.30;68045;1275;1016361;-66
2023/04/12 10:23:47;;;;;;;26.60;11.40;;;;;;;13.53;72.22;98237.76;67956;1276;1016206;-66
2023/04/12 10:26:49;;;;;;;24.70;10.80;;;;;;;13.53;69.33;98233.34;67934;1276;1016501;-64
2023/04/12 10:29:50;;;;;;;28.60;11.70;;;;;;;13.42;69.21;98238.44;67984;1275;1016416;-65
2023/04/12 10:32:51;;;;;;;24.50;10.90;;;;;;;13.34;68.89;98240.86;67954;1276;1018869;-72
2023/04/12 10:35:52;;;;;;;26.10;11.10;;;;;;;13.14;67.08;98234.84;68006;1276;1016044;-70
2023/04/12 10:38:53;;;;;;;26.40;10.50;;;;;;;13.15;69.18;98230.40;67996;1276;1016409;-70
2023/04/12 10:41:55;;;;;;;26.50;10.70;;;;;;;13.35;69.77;98233.90;68043;1276;1016204;-72
2023/04/12 10:44:56;;;;;;;24.40;9.80;;;;;;;13.45;67.37;98231.90;67988;1276;1016450;-72
2023/04/12 10:48:00;;;;;;;25.60;11.30;;;;;;;13.65;68.55;98224.47;68014;1276;1016333;-69
2023/04/12 10:51:01;;;;;;;23.40;9.40;;;;;;;13.72;67.75;98222.09;67964;1276;1016445;-71
2023/04/12 10:54:02;;;;;;;20.90;7.80;;;;;;;13.55;66.68;98220.55;67964;1276;1016751;-71
2023/04/12 10:57:03;;;;;;;22.90;9.00;;;;;;;13.53;66.16;98217.38;67957;1275;1016433;-71
2023/04/12 11:00:05;;;;;;;22.30;8.40;;;;;;;13.66;66.10;98211.67;67972;1275;1016397;-71
2023/04/12 11:03:06;;;;;;;21.70;8.70;;;;;;;13.92;66.24;98206.71;68051;1275;1016084;-71
2023/04/12 11:06:07;;;;;;;22.30;8.00;;;;;;;14.14;63.97;98208.35;68043;1275;1016478;-71
2023/04/12 11:09:08;;;;;;;20.50;7.90;;;;;;;14.24;64.90;98207.34;68022;1275;1018918;-71
2023/04/12 11:12:09;;;;;;;20.30;7.30;;;;;;;14.32;63.81;98208.60;68021;1275;1016510;-71
2023/04/12 11:15:11;;;;;;;28.70;12.00;;;;;;;14.31;64.02;98201.33;67947;1275;1016418;-70
2023/04/12 11:18:12;;;;;;;28.70;11.60;;;;;;;14.47;63.40;98199.96;68078;1275;1016282;-71
2023/04/12 11:21:13;;;;;;;24.60;8.60;;;;;;;14.45;62.08;98198.73;67983;1275;1016378;-72
2023/04/12 11:24:14;;;;;;;20.90;7.50;;;;;;;14.45;61.34;98200.12;67979;1275;1016499;-70
2023/04/12 11:27:15;;;;;;;21.00;7.80;;;;;;;14.54;61.51;98196.16;68006;1275;1016313;-71
2023/04/12 11:30:16;;;;;;;22.20;8.60;;;;;;;14.61;61.83;98192.69;68009;1275;1016396;-71
2023/04/12 11:33:17;;;;;;;22.80;8.70;;;;;;;14.96;61.86;98190.23;68032;1275;1016330;-70
2023/04/12 11:36:19;;;;;;;22.80;8.00;;;;;;;15.22;59.98;98189.84;67940;1275;1018341;-71
2023/04/12 11:39:20;;;;;;;23.60;8.70;;;;;;;15.21;59.67;98195.42;68025;1275;1016330;-70
2023/04/12 11:42:21;;;;;;;25.30;9.60;;;;;;;15.11;60.19;98191.69;68040;1275;1016233;-63
2023/04/12 11:45:22;;;;;;;23.50;9.90;;;;;;;15.08;61.54;98186.38;67946;1275;1018457;-71
2023/04/12 11:48:23;;;;;;;24.30;9.90;;;;;;;15.38;60.56;98189.13;68052;1275;1016473;-70
2023/04/12 11:51:26;;;;;;;25.40;9.60;;;;;;;15.37;59.45;98194.35;68001;1275;1016461;-71
2023/04/12 11:54:28;;;;;;;26.70;10.00;;;;;;;15.42;61.67;98190.73;68033;1275;1016424;-71
2023/04/12 11:57:29;;;;;;;24.20;9.90;;;;;;;15.82;60.78;98190.77;67933;1275;1017570;-69
2023/04/12 12:00:31;;;;;;;23.30;9.00;;;;;;;15.96;60.44;98188.02;67999;1275;1016688;-71
2023/04/12 12:03:32;;;;;;;21.60;8.50;;;;;;;15.98;59.86;98180.84;68032;1275;1016595;-71
2023/04/12 12:06:33;;;;;;;20.20;7.30;;;;;;;15.98;58.12;98174.10;68026;1275;1015898;-71
2023/04/12 12:09:34;;;;;;;21.10;6.30;;;;;;;15.88;56.97;98169.79;67996;1275;1016458;-72
2023/04/12 12:12:35;;;;;;;18.30;6.00;;;;;;;15.67;54.95;98170.77;68017;1275;1016381;-71
2023/04/12 12:15:36;;;;;;;18.10;5.90;;;;;;;15.48;55.72;98168.85;67992;1275;1017694;-72
2023/04/12 12:18:37;;;;;;;21.00;6.50;;;;;;;15.58;56.14;98165.28;67981;1275;1016223;-71
2023/04/12 12:21:38;;;;;;;17.80;5.70;;;;;;;15.84;56.61;98159.70;68021;1275;1016613;-71
2023/04/12 12:24:39;;;;;;;16.80;5.40;;;;;;;16.26;56.57;98145.36;67962;1275;1018564;-70
2023/04/12 12:27:43;;;;;;;23.00;6.90;;;;;;;16.79;56.21;98139.62;67981;1275;1016361;-71
2023/04/12 12:30:44;;;;;;;20.70;6.30;;;;;;;17.67;54.78;98132.19;68017;1275;1016766;-71
2023/04/12 12:33:46;;;;;;;21.70;6.10;;;;;;;18.45;51.03;98123.19;68015;1275;1016434;-71
2023/04/12 12:36:47;;;;;;;19.80;6.00;;;;;;;18.69;51.18;98121.56;67958;1275;1016256;-71
2023/04/12 12:39:48;;;;;;;20.10;5.30;;;;;;;19.01;50.49;98117.66;67980;1276;1016446;-70
2023/04/12 12:42:49;;;;;;;44.10;17.30;;;;;;;19.23;51.49;98108.35;67975;1275;1017171;-70
2023/04/12 12:45:50;;;;;;;16.80;5.50;;;;;;;19.68;51.08;98105.48;67972;1275;1016478;-70
2023/04/12 12:48:51;;;;;;;33.80;12.50;;;;;;;20.53;51.73;98099.23;68014;1275;1016436;-70
2023/04/12 12:51:52;;;;;;;17.90;5.40;;;;;;;20.61;48.35;98096.33;67965;1275;1016442;-71
2023/04/12 12:54:53;;;;;;;17.30;5.40;;;;;;;20.20;48.82;98094.27;68003;1275;1016198;-71
2023/04/12 12:57:55;;;;;;;16.00;4.80;;;;;;;20.11;50.11;98089.55;67973;1275;1018761;-70
2023/04/12 13:00:56;;;;;;;15.60;4.60;;;;;;;20.10;49.01;98086.09;67965;1275;1016312;-71
2023/04/12 13:03:57;;;;;;;14.60;4.90;;;;;;;20.15;49.35;98082.30;67993;1275;1018091;-71
2023/04/12 13:06:58;;;;;;;15.20;4.50;;;;;;;20.07;49.17;98082.51;68005;1275;1018799;-70
2023/04/12 13:09:59;;;;;;;14.30;4.80;;;;;;;20.15;48.38;98080.58;68018;1275;1016617;-70
2023/04/12 13:13:00;;;;;;;15.80;4.80;;;;;;;20.28;47.87;98076.98;68023;1275;1016417;-71
2023/04/12 13:16:02;;;;;;;15.20;4.70;;;;;;;20.63;47.82;98073.98;68042;1275;1017185;-71
2023/04/12 13:19:03;;;;;;;16.20;5.40;;;;;;;20.56;46.09;98071.34;67974;1275;1016759;-71
2023/04/12 13:22:06;;;;;;;15.70;4.50;;;;;;;20.33;46.97;98069.38;68018;1275;1016487;-72
2023/04/12 13:25:07;;;;;;;15.40;4.30;;;;;;;19.92;46.18;98071.43;67972;1275;1016192;-71
2023/04/12 13:28:08;;;;;;;14.60;4.60;;;;;;;19.43;46.55;98078.02;68024;1275;1016957;-71
2023/04/12 13:31:09;;;;;;;15.10;4.90;;;;;;;19.16;46.83;98074.92;67992;1275;1016395;-71
2023/04/12 13:34:10;;;;;;;14.80;4.80;;;;;;;18.64;45.21;98069.50;68008;1275;1017161;-71
2023/04/12 13:37:11;;;;;;;16.10;5.30;;;;;;;17.96;46.70;98060.46;68017;1275;1016969;-71